• Join FlightAware (Why Join?)
  • Login
  • US Flag 
10:26PM EDT


 

Airport Tracker/Info


-or-


 

Live Flight TrackerFlight Track Log ✈ N248CG ✈ 12-Oct-2013 ✈ KAUO - KGAD

Flight Track Log - Related Links

Times and Time Zones

All times are in EDT time to prevent confusion due to time zone crossing. See the N248CG flight status page for this flight to view local times or setup timezone preferences in your user account.

Time Position Orientation Groundspeed Altitude Reporting Facility
EDT Latitude Longitude Course Direction KTS MPH feet Rate Location/Type
05:55PM 32.6500 -85.4333 326° Northwest 97 112 2,200  Level Atlanta TRACON
05:56PM 32.6833 -85.4333 360° North 96 110 3,100 840 Climbing Atlanta TRACON
05:57PM 32.7000 -85.4167 40° Northeast 105 121 3,800 540 Climbing Atlanta TRACON
05:58PM 32.7428 -85.4242 352° North 120 138 4,400 600 Climbing Atlanta Center
05:59PM 32.7719 -85.4444 330° Northwest 120 138 5,300 720 Climbing Atlanta Center
06:00PM 32.7837 -85.5142 326° Northwest  Level Estimated
06:00PM 32.8008 -85.4672 326° Northwest 120 138 5,900  Level Atlanta Center
06:01PM 32.8317 -85.4925 325° Northwest 127 146 6,000  Climbing Atlanta Center
06:02PM 32.8692 -85.5178 330° Northwest 133 153 6,000 -60 Level Atlanta Center
06:03PM 32.9064 -85.5431 330° Northwest 147 169 5,900  Descending Atlanta Center
06:04PM 32.9414 -85.5708 326° Northwest 147 169 6,000  Climbing Atlanta Center
06:05PM 32.9828 -85.6039 326° Northwest 155 178 5,900 -60 Descending Atlanta Center
06:06PM 33.0200 -85.6319 328° Northwest 162 186 5,900  Level Atlanta Center
06:07PM 33.0572 -85.6572 330° Northwest 152 175 5,900  Level Atlanta Center
06:08PM 33.0842 -85.6775 328° Northwest 147 169 5,900  Level Atlanta Center
06:09PM 33.1214 -85.7056 328° Northwest 147 169 5,900  Level Atlanta Center
06:10PM 33.1544 -85.7286 330° Northwest 147 169 5,900  Level Atlanta Center
06:11PM 33.1894 -85.7564 326° Northwest 147 169 6,000  Climbing Atlanta Center
06:12PM 33.2267 -85.7822 330° Northwest 147 169 5,900 -60 Descending Atlanta Center
06:13PM 33.2639 -85.8078 330° Northwest 152 175 5,900  Level Atlanta Center
06:14PM 33.2969 -85.8358 325° Northwest 147 169 6,000  Climbing Atlanta Center
06:15PM 33.3383 -85.8664 328° Northwest 153 176 6,000 60 Level Atlanta Center
06:16PM 33.3525 -85.8842 314° West 159 183 6,100 120 Climbing Atlanta Center
06:16PM 33.3608 -85.8892 333° Northwest 158 182 6,100  Level Atlanta Center
06:16PM 33.3775 -85.8947 344° North 158 182 6,100 -120 Level Atlanta Center
06:17PM 33.3981 -85.9150 321° Northwest 155 178 6,000 -120 Descending Atlanta Center
06:17PM 33.4064 -85.9175 346° North 143 165 6,000  Level Atlanta Center
06:18PM 33.4414 -85.9408 331° Northwest 143 165 6,000 -180 Level Atlanta Center
06:19PM 33.4786 -85.9714 326° Northwest 148 170 5,700 -360 Descending Atlanta Center
06:20PM 33.5178 -85.9997 329° Northwest 153 176 5,300 -540 Descending Atlanta Center
06:21PM 33.5528 -86.0306 324° Northwest 164 189 4,800 -540 Descending Atlanta Center
06:21PM 33.5569 -86.0306 360° North 158 182 4,800 -300 Level Atlanta Center
06:22PM 33.5922 -86.0464 340° North 165 190 4,500 -300 Descending Atlanta Center
06:22PM 33.6028 -86.0392 30° Northeast 158 182 4,500 -240 Level Atlanta Center
06:23PM 33.6442 -86.0550 342° North 160 184 4,300 -240 Descending Atlanta Center
06:23PM 33.6422 -86.0500 115° Southeast 158 182 4,300 -240 Level Atlanta Center
06:24PM 33.6881 -86.0586 351° North 160 184 4,100 -240 Descending Atlanta Center
06:24PM 33.6900 -86.0611 313° West 158 182 4,100 1,860 Level Atlanta Center
06:25PM 33.7317 -86.0669 353° North 158 182 6,000 1,860 Climbing Atlanta Center